createdAt,value
2018-04-11T00:01:13.271Z,10.52
2018-04-11T00:03:41.318Z,10.54
2018-04-11T00:06:09.041Z,10.53
2018-04-11T00:08:36.880Z,10.52
2018-04-11T00:11:04.599Z,10.58
2018-04-11T00:13:32.212Z,10.57
2018-04-11T00:15:59.806Z,10.56
2018-04-11T00:18:28.821Z,10.55
2018-04-11T00:20:56.508Z,10.57
2018-04-11T00:23:24.187Z,10.46
2018-04-11T00:25:52.232Z,10.46
2018-04-11T00:28:20.085Z,10.37
2018-04-11T00:30:47.826Z,10.35
2018-04-11T00:33:15.513Z,10.37
2018-04-11T00:35:43.122Z,10.42
2018-04-11T00:38:11.136Z,10.40
2018-04-11T00:40:39.004Z,10.37
2018-04-11T00:43:06.615Z,10.41
2018-04-11T00:45:34.255Z,10.36
2018-04-11T00:48:02.086Z,10.31
2018-04-11T00:50:29.983Z,10.30
2018-04-11T00:53:09.334Z,10.26
2018-04-11T00:55:37.060Z,10.27
2018-04-11T00:58:04.720Z,10.21
2018-04-11T01:00:32.332Z,10.20
2018-04-11T01:03:00.034Z,10.22
2018-04-11T01:05:27.661Z,10.25
2018-04-11T01:07:55.282Z,10.20
2018-04-11T01:10:23.137Z,10.19
2018-04-11T01:12:51.551Z,10.17
2018-04-11T01:15:19.136Z,10.17
2018-04-11T01:17:46.742Z,10.12
2018-04-11T01:20:14.502Z,10.14
2018-04-11T01:22:42.089Z,10.13
2018-04-11T01:25:09.754Z,10.10
2018-04-11T01:27:37.794Z,10.06
2018-04-11T01:30:05.657Z,10.05
2018-04-11T01:32:37.190Z,10.04
2018-04-11T01:35:04.786Z,9.96
2018-04-11T01:37:33.067Z,9.94
2018-04-11T01:40:00.746Z,9.96
2018-04-11T01:42:28.344Z,9.95
2018-04-11T01:44:56.247Z,9.91
2018-04-11T01:47:23.907Z,9.93
2018-04-11T01:49:51.528Z,9.91
2018-04-11T01:52:19.307Z,9.90
2018-04-11T01:54:47.231Z,9.84
2018-04-11T01:57:14.831Z,9.84
2018-04-11T01:59:42.583Z,9.81
2018-04-11T02:02:10.239Z,9.81
2018-04-11T02:04:38.667Z,9.82
2018-04-11T02:07:06.269Z,9.83
2018-04-11T02:09:33.918Z,9.82
2018-04-11T02:12:01.654Z,9.78
2018-04-11T02:14:29.631Z,9.80
2018-04-11T02:16:57.318Z,9.78
2018-04-11T02:19:24.926Z,9.76
2018-04-11T02:21:52.665Z,9.80
2018-04-11T02:24:20.342Z,9.81
2018-04-11T02:26:48.019Z,9.77
2018-04-11T02:29:15.670Z,9.74
2018-04-11T02:31:43.272Z,9.71
2018-04-11T02:34:10.931Z,9.71
2018-04-11T02:36:38.607Z,9.72
2018-04-11T02:39:06.966Z,9.69
2018-04-11T02:41:34.831Z,9.71
2018-04-11T02:44:02.487Z,9.72
2018-04-11T02:46:30.165Z,9.70
2018-04-11T02:48:57.770Z,9.61
2018-04-11T02:51:25.399Z,9.64
2018-04-11T02:53:53.453Z,9.56
2018-04-11T02:56:21.120Z,9.54
2018-04-11T02:58:48.760Z,9.51
2018-04-11T03:01:16.391Z,9.54
2018-04-11T03:03:44.018Z,9.52
2018-04-11T03:06:11.663Z,9.55
2018-04-11T03:08:39.356Z,9.48
2018-04-11T03:11:07.294Z,9.45
2018-04-11T03:13:34.926Z,9.44
2018-04-11T03:16:02.552Z,9.43
2018-04-11T03:18:30.140Z,9.43
2018-04-11T03:20:57.775Z,9.41
2018-04-11T03:23:25.387Z,9.40
2018-04-11T03:25:52.994Z,9.37
2018-04-11T03:28:20.584Z,9.37
2018-04-11T03:30:48.532Z,9.37
2018-04-11T03:33:16.135Z,9.34
2018-04-11T03:35:43.759Z,9.34
2018-04-11T03:38:11.385Z,9.32
2018-04-11T03:40:39.026Z,9.29
2018-04-11T03:43:06.688Z,9.28
2018-04-11T03:45:34.314Z,9.27
2018-04-11T03:48:01.924Z,9.27
2018-04-11T03:50:29.938Z,9.24
2018-04-11T03:52:57.636Z,9.16
2018-04-11T03:55:25.244Z,9.16
2018-04-11T03:57:54.035Z,9.02
2018-04-11T04:00:22.293Z,8.99
2018-04-11T04:02:50.367Z,8.94
2018-04-11T04:05:18.573Z,8.96
2018-04-11T04:07:46.655Z,8.88
2018-04-11T04:10:14.534Z,8.85
2018-04-11T04:12:42.378Z,8.86
2018-04-11T04:15:21.729Z,8.85
2018-04-11T04:18:01.484Z,8.88
2018-04-11T04:20:36.882Z,8.85
2018-04-11T04:23:04.526Z,8.83
2018-04-11T04:25:32.185Z,8.78
2018-04-11T04:27:59.803Z,8.81
2018-04-11T04:30:27.889Z,8.78
2018-04-11T04:32:55.586Z,8.77
2018-04-11T04:35:23.217Z,8.79
2018-04-11T04:37:51.168Z,8.77
2018-04-11T04:40:18.767Z,8.66
2018-04-11T04:42:46.366Z,8.71
2018-04-11T04:45:14.012Z,8.68
2018-04-11T04:47:41.650Z,8.71
2018-04-11T04:50:09.561Z,8.68
2018-04-11T04:52:37.207Z,8.65
2018-04-11T04:55:04.856Z,8.65
2018-04-11T04:57:32.447Z,8.64
2018-04-11T05:00:00.381Z,8.67
2018-04-11T05:02:27.997Z,8.65
2018-04-11T05:04:55.688Z,8.65
2018-04-11T05:07:23.673Z,8.65
2018-04-11T05:09:51.293Z,8.59
2018-04-11T05:12:18.918Z,8.62
2018-04-11T05:14:46.544Z,8.62
2018-04-11T05:17:14.485Z,8.56
2018-04-11T05:19:42.303Z,8.58
2018-04-11T05:22:09.965Z,8.62
2018-04-11T05:24:37.671Z,8.63
2018-04-11T05:27:05.321Z,8.64
2018-04-11T05:29:32.954Z,8.65
2018-04-11T05:32:01.208Z,8.68
2018-04-11T05:34:28.807Z,8.66
2018-04-11T05:36:56.404Z,8.68
2018-04-11T05:39:24.156Z,8.73
2018-04-11T05:41:51.906Z,8.76
2018-04-11T05:44:19.835Z,8.78
2018-04-11T05:46:47.730Z,8.75
2018-04-11T05:49:15.322Z,8.79
2018-04-11T05:51:43.333Z,8.89
2018-04-11T05:54:10.941Z,8.92
2018-04-11T05:56:38.646Z,8.97
2018-04-11T05:59:06.310Z,9.04
2018-04-11T06:01:33.937Z,9.03
2018-04-11T06:04:01.527Z,9.10
2018-04-11T06:06:29.197Z,9.15
2018-04-11T06:08:56.863Z,9.17
2018-04-11T06:11:24.501Z,9.22
2018-04-11T06:13:52.098Z,9.27
2018-04-11T06:16:19.725Z,9.27
2018-04-11T06:18:47.427Z,9.33
2018-04-11T06:21:15.056Z,9.39
2018-04-11T06:23:42.707Z,9.48
2018-04-11T06:26:10.309Z,9.62
2018-04-11T06:28:37.960Z,9.70
2018-04-11T06:31:05.640Z,9.82
2018-04-11T06:33:33.213Z,9.92
2018-04-11T06:36:00.825Z,10.01
2018-04-11T06:38:28.421Z,10.05
2018-04-11T06:40:56.056Z,10.10
2018-04-11T06:43:23.652Z,10.22
2018-04-11T06:45:51.689Z,10.31
2018-04-11T06:48:19.358Z,10.39
2018-04-11T06:50:46.953Z,10.48
2018-04-11T06:53:14.577Z,10.60
2018-04-11T06:55:42.175Z,10.69
2018-04-11T06:58:09.840Z,10.78
2018-04-11T07:00:37.782Z,10.92
2018-04-11T07:03:05.397Z,10.97
2018-04-11T07:05:33.177Z,11.01
2018-04-11T07:08:01.075Z,11.13
2018-04-11T07:10:28.785Z,11.25
2018-04-11T07:12:56.397Z,11.25
2018-04-11T07:15:24.028Z,11.31
2018-04-11T07:17:51.926Z,11.31
2018-04-11T07:20:19.889Z,11.37
2018-04-11T07:22:47.500Z,11.38
2018-04-11T07:25:15.088Z,11.51
2018-04-11T07:27:42.979Z,11.64
2018-04-11T07:30:10.581Z,11.76
2018-04-11T07:32:38.220Z,11.82
2018-04-11T07:35:06.079Z,11.92
2018-04-11T07:37:34.030Z,12.01
2018-04-11T07:40:01.717Z,12.07
2018-04-11T07:42:29.350Z,12.20
2018-04-11T07:44:56.977Z,12.31
2018-04-11T07:47:24.638Z,12.44
2018-04-11T07:49:52.254Z,12.56
2018-04-11T07:52:19.966Z,12.66
2018-04-11T07:54:47.704Z,12.69
2018-04-11T07:57:15.556Z,12.77
2018-04-11T07:59:43.719Z,12.85
2018-04-11T08:02:11.997Z,12.83
2018-04-11T08:04:39.797Z,12.80
2018-04-11T08:07:07.410Z,12.75
2018-04-11T08:09:35.001Z,12.83
2018-04-11T08:12:02.727Z,12.84
2018-04-11T08:14:30.385Z,12.81
2018-04-11T08:16:58.123Z,12.81
2018-04-11T08:19:26.045Z,12.84
2018-04-11T08:21:54.014Z,12.80
2018-04-11T08:24:21.706Z,12.84
2018-04-11T08:26:49.611Z,12.92
2018-04-11T08:29:17.533Z,13.03
2018-04-11T08:31:45.155Z,13.09
2018-04-11T08:34:12.785Z,13.19
2018-04-11T08:36:40.451Z,13.29
2018-04-11T08:39:08.304Z,13.38
2018-04-11T08:41:36.728Z,13.50
2018-04-11T08:44:04.361Z,13.50
2018-04-11T08:46:31.945Z,13.44
2018-04-11T08:48:59.649Z,13.38
2018-04-11T08:51:27.255Z,13.36
2018-04-11T08:53:54.849Z,13.32
2018-04-11T08:56:22.470Z,13.32
2018-04-11T08:58:50.079Z,13.35
2018-04-11T09:01:17.710Z,13.43
2018-04-11T09:03:45.317Z,13.34
2018-04-11T09:06:12.947Z,13.33
2018-04-11T09:08:40.606Z,13.28
2018-04-11T09:11:08.313Z,13.23
2018-04-11T09:13:36.010Z,13.22
2018-04-11T09:16:03.615Z,13.27
2018-04-11T09:18:31.308Z,13.29
2018-04-11T09:20:59.322Z,13.32
2018-04-11T09:23:26.944Z,13.38
2018-04-11T09:25:54.547Z,13.47
2018-04-11T09:28:22.238Z,13.52
2018-04-11T09:30:50.764Z,13.55
2018-04-11T09:33:18.420Z,13.56
2018-04-11T09:35:46.032Z,13.41
2018-04-11T09:38:13.654Z,13.30
2018-04-11T09:40:41.272Z,13.29
2018-04-11T09:43:08.978Z,13.33
2018-04-11T09:45:36.638Z,13.36
2018-04-11T09:48:04.240Z,13.37
2018-04-11T09:50:31.826Z,13.41
2018-04-11T09:52:59.465Z,13.55
2018-04-11T09:55:27.079Z,13.63
2018-04-11T09:57:54.690Z,13.75
2018-04-11T10:00:22.331Z,13.95
2018-04-11T10:02:55.632Z,14.14
2018-04-11T10:05:23.231Z,14.14
2018-04-11T10:07:51.268Z,14.14
2018-04-11T10:10:18.885Z,14.10
2018-04-11T10:12:46.914Z,14.03
2018-04-11T10:15:14.883Z,14.13
2018-04-11T10:17:42.479Z,14.29
2018-04-11T10:20:10.111Z,14.52
2018-04-11T10:22:37.796Z,14.68
2018-04-11T10:25:06.149Z,14.71
2018-04-11T10:27:33.746Z,14.68
2018-04-11T10:30:01.443Z,14.70
2018-04-11T10:32:29.071Z,14.86
2018-04-11T10:34:56.888Z,15.19
2018-04-11T10:37:24.597Z,15.60
2018-04-11T10:39:52.269Z,15.81
2018-04-11T10:42:19.877Z,15.92
2018-04-11T10:44:47.905Z,16.13
2018-04-11T10:47:15.503Z,16.35
2018-04-11T10:49:43.163Z,16.73
2018-04-11T10:52:10.793Z,17.09
2018-04-11T10:54:38.415Z,17.25
2018-04-11T10:57:06.070Z,17.36
2018-04-11T10:59:33.730Z,17.47
2018-04-11T11:02:01.347Z,17.65
2018-04-11T11:04:28.980Z,17.75
2018-04-11T11:06:56.918Z,17.89
2018-04-11T11:09:24.555Z,17.82
2018-04-11T11:11:52.158Z,17.82
2018-04-11T11:14:19.777Z,17.76
2018-04-11T11:16:47.454Z,17.63
2018-04-11T11:19:15.433Z,17.50
2018-04-11T11:21:43.073Z,17.36
2018-04-11T11:24:10.897Z,17.39
2018-04-11T11:26:38.728Z,17.58
2018-04-11T11:29:06.360Z,17.69
2018-04-11T11:31:35.195Z,17.91
2018-04-11T11:34:02.949Z,18.19
2018-04-11T11:36:30.614Z,18.44
2018-04-11T11:38:58.270Z,18.63
2018-04-11T11:41:26.016Z,18.76
2018-04-11T11:43:54.081Z,19.01
2018-04-11T11:46:21.688Z,19.08
2018-04-11T11:48:49.298Z,19.47
2018-04-11T11:51:16.923Z,19.60
2018-04-11T11:53:44.602Z,19.36
2018-04-11T11:56:12.518Z,19.37
2018-04-11T11:58:40.489Z,19.16
2018-04-11T12:01:08.101Z,18.86
2018-04-11T12:03:35.706Z,18.86
2018-04-11T12:06:03.584Z,18.64
2018-04-11T12:08:31.189Z,18.58
2018-04-11T12:10:58.893Z,18.46
2018-04-11T12:13:26.492Z,18.42
2018-04-11T12:15:54.107Z,18.38
2018-04-11T12:18:21.708Z,18.22
2018-04-11T12:20:49.335Z,18.07
2018-04-11T12:23:17.387Z,18.05
2018-04-11T12:25:45.289Z,18.12
2018-04-11T12:28:12.898Z,17.88
2018-04-11T12:30:40.569Z,17.93
2018-04-11T12:33:08.481Z,17.97
2018-04-11T12:35:36.108Z,17.96
2018-04-11T12:38:03.691Z,18.04
2018-04-11T12:40:31.396Z,18.32
2018-04-11T12:42:59.058Z,18.69
2018-04-11T12:45:26.936Z,18.75
2018-04-11T12:47:54.526Z,18.85
2018-04-11T12:50:22.274Z,18.69
2018-04-11T12:52:49.874Z,18.60
2018-04-11T12:55:17.464Z,18.49
2018-04-11T12:57:45.115Z,18.39
2018-04-11T13:00:12.888Z,18.25
2018-04-11T13:02:40.553Z,18.25
2018-04-11T13:05:08.162Z,18.27
2018-04-11T13:07:35.789Z,18.19
2018-04-11T13:10:03.444Z,18.23
2018-04-11T13:12:31.090Z,18.31
2018-04-11T13:14:58.713Z,18.46
2018-04-11T13:17:26.576Z,18.47
2018-04-11T13:19:54.206Z,18.78
2018-04-11T13:22:21.849Z,19.13
2018-04-11T13:24:49.477Z,19.30
2018-04-11T13:27:17.137Z,19.59
2018-04-11T13:29:44.738Z,19.77
2018-04-11T13:32:12.350Z,19.97
2018-04-11T13:34:39.972Z,20.20
2018-04-11T13:37:07.621Z,19.91
2018-04-11T13:39:35.570Z,19.94
2018-04-11T13:42:03.196Z,20.08
2018-04-11T13:44:30.811Z,20.26
2018-04-11T13:46:58.463Z,20.45
2018-04-11T13:49:26.131Z,20.23
2018-04-11T13:51:53.747Z,20.11
2018-04-11T13:54:21.423Z,20.15
2018-04-11T13:56:49.029Z,20.31
2018-04-11T13:59:16.677Z,20.30
2018-04-11T14:01:44.547Z,20.14
2018-04-11T14:04:12.505Z,20.35
2018-04-11T14:06:40.402Z,20.47
2018-04-11T14:09:08.048Z,20.45
2018-04-11T14:11:36.090Z,20.55
2018-04-11T14:14:03.970Z,20.13
2018-04-11T14:16:31.615Z,20.14
2018-04-11T14:18:59.212Z,20.22
2018-04-11T14:21:27.062Z,20.31
2018-04-11T14:23:54.924Z,20.29
2018-04-11T14:26:22.611Z,20.45
2018-04-11T14:28:50.206Z,20.53
2018-04-11T14:31:17.824Z,20.53
2018-04-11T14:33:45.516Z,20.43
2018-04-11T14:36:13.150Z,20.36
2018-04-11T14:38:40.824Z,20.30
2018-04-11T14:41:08.468Z,20.67
2018-04-11T14:43:36.065Z,20.84
2018-04-11T14:46:03.930Z,21.04
2018-04-11T14:48:31.556Z,21.06
2018-04-11T14:50:59.196Z,20.80
2018-04-11T14:53:26.814Z,20.91
2018-04-11T14:55:54.480Z,20.85
2018-04-11T14:58:22.407Z,20.84
2018-04-11T15:00:50.102Z,20.61
2018-04-11T15:03:17.726Z,20.62
2018-04-11T15:05:45.310Z,20.67
2018-04-11T15:08:12.947Z,20.67
2018-04-11T15:10:40.533Z,20.58
2018-04-11T15:13:08.203Z,20.61
2018-04-11T15:15:35.964Z,20.49
2018-04-11T15:18:03.562Z,20.52
2018-04-11T15:20:31.180Z,20.39
2018-04-11T15:22:58.813Z,20.57
2018-04-11T15:25:26.504Z,20.50
2018-04-11T15:27:54.102Z,20.61
2018-04-11T15:30:21.812Z,20.57
2018-04-11T15:32:49.415Z,20.60
2018-04-11T15:35:17.082Z,20.51
2018-04-11T15:37:44.704Z,20.42
2018-04-11T15:40:12.311Z,20.44
2018-04-11T15:42:40.222Z,20.21
2018-04-11T15:45:07.881Z,20.31
2018-04-11T15:47:35.599Z,20.26
2018-04-11T15:50:03.206Z,20.08
2018-04-11T15:52:30.904Z,19.99
2018-04-11T15:54:58.511Z,19.77
2018-04-11T15:57:26.152Z,19.56
2018-04-11T15:59:53.753Z,19.51
2018-04-11T16:02:21.436Z,19.34
2018-04-11T16:04:49.392Z,19.24
2018-04-11T16:07:16.987Z,19.35
2018-04-11T16:09:44.728Z,19.18
2018-04-11T16:12:12.756Z,19.21
2018-04-11T16:14:40.444Z,19.11
2018-04-11T16:17:08.205Z,19.18
2018-04-11T16:19:35.905Z,19.24
2018-04-11T16:22:03.577Z,19.32
2018-04-11T16:24:31.215Z,19.21
2018-04-11T16:26:58.872Z,19.01
2018-04-11T16:29:27.317Z,19.06
2018-04-11T16:31:54.919Z,18.98
2018-04-11T16:34:22.679Z,18.84
2018-04-11T16:36:50.279Z,18.69
2018-04-11T16:39:17.892Z,18.52
2018-04-11T16:41:45.970Z,18.48
2018-04-11T16:44:13.936Z,18.26
2018-04-11T16:46:41.640Z,18.17
2018-04-11T16:49:09.236Z,18.09
2018-04-11T16:51:36.901Z,18.01
2018-04-11T16:54:04.538Z,17.99
2018-04-11T16:56:32.876Z,17.91
2018-04-11T16:59:00.504Z,17.86
2018-04-11T17:01:28.171Z,17.69
2018-04-11T17:03:55.814Z,17.57
2018-04-11T17:06:23.407Z,17.39
2018-04-11T17:08:51.013Z,17.35
2018-04-11T17:11:18.731Z,17.30
2018-04-11T17:13:46.591Z,17.28
2018-04-11T17:16:14.331Z,17.30
2018-04-11T17:18:42.038Z,17.20
2018-04-11T17:21:21.558Z,16.92
2018-04-11T17:24:01.362Z,16.88
2018-04-11T17:26:40.779Z,16.90
2018-04-11T17:29:20.233Z,16.86
2018-04-11T17:31:47.905Z,16.80
2018-04-11T17:34:15.561Z,16.61
2018-04-11T17:36:43.231Z,16.46
2018-04-11T17:39:11.297Z,16.41
2018-04-11T17:41:38.923Z,16.36
2018-04-11T17:44:06.552Z,16.42
2018-04-11T17:46:34.212Z,16.38
2018-04-11T17:49:01.876Z,16.31
2018-04-11T17:51:29.490Z,16.23
2018-04-11T17:53:57.376Z,16.09
2018-04-11T17:56:25.060Z,15.97
2018-04-11T17:58:52.659Z,15.86
2018-04-11T18:01:20.632Z,15.79
2018-04-11T18:03:48.260Z,15.72
2018-04-11T18:06:15.909Z,15.69
2018-04-11T18:08:43.597Z,15.65
2018-04-11T18:11:11.188Z,15.39
2018-04-11T18:13:38.806Z,15.37
2018-04-11T18:16:06.411Z,15.22
2018-04-11T18:18:34.067Z,15.16
2018-04-11T18:21:01.659Z,14.99
2018-04-11T18:23:29.329Z,14.94
2018-04-11T18:25:57.037Z,14.94
2018-04-11T18:28:24.771Z,14.89
2018-04-11T18:30:52.453Z,14.71
2018-04-11T18:33:20.088Z,14.57
2018-04-11T18:35:47.939Z,14.55
2018-04-11T18:38:15.540Z,14.45
2018-04-11T18:40:43.206Z,14.36
2018-04-11T18:43:10.898Z,14.22
2018-04-11T18:45:38.571Z,14.09
2018-04-11T18:48:06.509Z,13.97
2018-04-11T18:50:34.133Z,13.84
2018-04-11T18:53:01.807Z,13.79
2018-04-11T18:55:29.410Z,13.66
2018-04-11T18:57:57.043Z,13.63
2018-04-11T19:00:24.750Z,13.64
2018-04-11T19:02:52.423Z,13.58
2018-04-11T19:05:23.225Z,13.49
2018-04-11T19:07:50.969Z,13.29
2018-04-11T19:10:18.576Z,13.09
2018-04-11T19:12:46.312Z,12.91
2018-04-11T19:15:14.269Z,12.80
2018-04-11T19:17:41.902Z,12.78
2018-04-11T19:20:09.673Z,12.75
2018-04-11T19:22:37.355Z,12.68
2018-04-11T19:25:05.051Z,12.59
2018-04-11T19:27:33.001Z,12.55
2018-04-11T19:30:00.704Z,12.56
2018-04-11T19:32:28.381Z,12.49
2018-04-11T19:34:56.007Z,12.47
2018-04-11T19:37:23.763Z,12.48
2018-04-11T19:39:51.368Z,12.30
2018-04-11T19:42:19.001Z,12.28
2018-04-11T19:44:46.697Z,12.15
2018-04-11T19:47:14.766Z,11.92
2018-04-11T19:49:42.486Z,11.75
2018-04-11T19:52:10.127Z,11.72
2018-04-11T19:54:38.208Z,11.50
2018-04-11T19:57:06.112Z,11.63
2018-04-11T19:59:33.828Z,11.61
2018-04-11T20:02:01.482Z,11.46
2018-04-11T20:04:29.128Z,11.44
2018-04-11T20:06:56.970Z,11.31
2018-04-11T20:09:24.612Z,11.29
2018-04-11T20:11:52.331Z,11.21
2018-04-11T20:14:19.992Z,11.16
2018-04-11T20:16:47.623Z,11.04
2018-04-11T20:19:15.307Z,10.94
2018-04-11T20:21:43.803Z,10.91
2018-04-11T20:24:11.939Z,10.90
2018-04-11T20:26:40.088Z,10.86
2018-04-11T20:29:08.389Z,10.73
2018-04-11T20:31:37.347Z,10.66
2018-04-11T20:34:05.566Z,10.59
2018-04-11T20:36:33.186Z,10.60
2018-04-11T20:39:01.152Z,10.52
2018-04-11T20:41:31.984Z,10.57
2018-04-11T20:43:59.711Z,10.50
2018-04-11T20:46:27.342Z,10.56
2018-04-11T20:48:55.028Z,10.50
2018-04-11T20:51:22.667Z,10.48
2018-04-11T20:53:50.255Z,10.46
2018-04-11T20:56:17.893Z,10.39
2018-04-11T20:58:45.585Z,10.33
2018-04-11T21:01:13.434Z,10.35
2018-04-11T21:03:41.091Z,10.34
2018-04-11T21:06:09.230Z,10.33
2018-04-11T21:08:36.926Z,10.33
2018-04-11T21:11:04.853Z,10.27
2018-04-11T21:13:32.566Z,10.28
2018-04-11T21:16:00.225Z,10.25
2018-04-11T21:18:27.847Z,10.11
2018-04-11T21:20:55.530Z,10.18
2018-04-11T21:23:23.119Z,10.14
2018-04-11T21:25:50.732Z,10.12
2018-04-11T21:28:18.367Z,10.15
2018-04-11T21:30:46.004Z,10.07
2018-04-11T21:33:13.676Z,10.12
2018-04-11T21:35:41.257Z,10.05
2018-04-11T21:38:08.928Z,10.00
2018-04-11T21:40:36.897Z,9.93
2018-04-11T21:43:04.537Z,9.93
2018-04-11T21:45:32.139Z,9.89
2018-04-11T21:47:59.802Z,9.77
2018-04-11T21:50:27.416Z,9.80
2018-04-11T21:52:55.321Z,9.76
2018-04-11T21:55:23.286Z,9.81
2018-04-11T21:57:50.962Z,9.80
2018-04-11T22:00:18.537Z,9.87
2018-04-11T22:02:46.192Z,9.81
2018-04-11T22:05:13.857Z,9.81
2018-04-11T22:07:41.440Z,9.81
2018-04-11T22:10:09.042Z,9.79
2018-04-11T22:12:36.628Z,9.81
2018-04-11T22:15:04.286Z,9.74
2018-04-11T22:17:31.867Z,9.66
2018-04-11T22:19:59.512Z,9.70
2018-04-11T22:22:27.152Z,9.68
2018-04-11T22:24:54.733Z,9.69
2018-04-11T22:27:25.553Z,9.66
2018-04-11T22:29:55.176Z,9.63
2018-04-11T22:32:23.613Z,9.60
2018-04-11T22:34:52.865Z,9.56
2018-04-11T22:37:20.561Z,9.56
2018-04-11T22:39:48.230Z,9.54
2018-04-11T22:42:16.155Z,9.56
2018-04-11T22:44:43.735Z,9.55
2018-04-11T22:47:11.328Z,9.51
2018-04-11T22:49:38.950Z,9.48
2018-04-11T22:52:06.548Z,9.51
2018-04-11T22:54:34.191Z,9.54
2018-04-11T22:57:02.117Z,9.49
2018-04-11T22:59:29.740Z,9.47
2018-04-11T23:01:57.749Z,9.46
2018-04-11T23:04:25.424Z,9.46
2018-04-11T23:06:53.477Z,9.43
2018-04-11T23:09:21.117Z,9.42
2018-04-11T23:11:48.820Z,9.38
2018-04-11T23:14:17.090Z,9.31
2018-04-11T23:16:45.051Z,9.27
2018-04-11T23:19:13.129Z,9.24
2018-04-11T23:21:40.740Z,9.18
2018-04-11T23:24:08.390Z,9.12
2018-04-11T23:26:36.166Z,9.10
2018-04-11T23:29:03.742Z,9.03
2018-04-11T23:31:31.322Z,9.04
2018-04-11T23:33:59.010Z,9.06
2018-04-11T23:36:26.586Z,9.01
2018-04-11T23:38:54.247Z,9.01
2018-04-11T23:41:22.194Z,9.02
2018-04-11T23:43:49.860Z,9.00
2018-04-11T23:46:17.468Z,8.95
2018-04-11T23:48:45.452Z,8.95
2018-04-11T23:51:13.103Z,8.98
2018-04-11T23:53:40.911Z,9.01
2018-04-11T23:56:08.562Z,8.97
2018-04-11T23:58:36.220Z,8.97
